sensor_id;sensor_type;location;lat;lon;timestamp;P1;durP1;ratioP1;P2;durP2;ratioP2
11568;SDS011;5840;46.894;15.542;2023-03-03T00:00:41;23.10;;;20.70;;
11568;SDS011;5840;46.894;15.542;2023-03-03T00:03:09;21.27;;;19.17;;
11568;SDS011;5840;46.894;15.542;2023-03-03T00:05:39;22.20;;;20.03;;
11568;SDS011;5840;46.894;15.542;2023-03-03T00:08:06;21.97;;;19.87;;
11568;SDS011;5840;46.894;15.542;2023-03-03T00:10:34;21.90;;;19.80;;
11568;SDS011;5840;46.894;15.542;2023-03-03T00:13:03;21.37;;;19.37;;
11568;SDS011;5840;46.894;15.542;2023-03-03T00:15:31;22.30;;;20.00;;
11568;SDS011;5840;46.894;15.542;2023-03-03T00:17:58;22.03;;;19.70;;
11568;SDS011;5840;46.894;15.542;2023-03-03T00:20:29;21.27;;;19.27;;
11568;SDS011;5840;46.894;15.542;2023-03-03T00:25:54;19.43;;;17.73;;
11568;SDS011;5840;46.894;15.542;2023-03-03T00:28:24;20.70;;;18.63;;
11568;SDS011;5840;46.894;15.542;2023-03-03T00:30:55;20.17;;;18.20;;
11568;SDS011;5840;46.894;15.542;2023-03-03T00:33:25;20.27;;;18.23;;
11568;SDS011;5840;46.894;15.542;2023-03-03T00:36:09;21.10;;;19.10;;
11568;SDS011;5840;46.894;15.542;2023-03-03T00:38:53;21.30;;;19.20;;
11568;SDS011;5840;46.894;15.542;2023-03-03T00:41:23;22.67;;;20.47;;
11568;SDS011;5840;46.894;15.542;2023-03-03T00:43:52;20.53;;;18.57;;
11568;SDS011;5840;46.894;15.542;2023-03-03T00:46:20;20.67;;;18.77;;
11568;SDS011;5840;46.894;15.542;2023-03-03T00:48:48;20.17;;;18.27;;
11568;SDS011;5840;46.894;15.542;2023-03-03T00:51:24;21.20;;;19.20;;
11568;SDS011;5840;46.894;15.542;2023-03-03T00:53:53;22.37;;;20.07;;
11568;SDS011;5840;46.894;15.542;2023-03-03T00:56:20;22.50;;;20.40;;
11568;SDS011;5840;46.894;15.542;2023-03-03T00:58:48;21.40;;;19.37;;
11568;SDS011;5840;46.894;15.542;2023-03-03T01:01:16;21.23;;;19.20;;
11568;SDS011;5840;46.894;15.542;2023-03-03T01:03:44;22.50;;;20.30;;
11568;SDS011;5840;46.894;15.542;2023-03-03T01:06:11;20.63;;;18.67;;
11568;SDS011;5840;46.894;15.542;2023-03-03T01:08:39;21.07;;;19.27;;
11568;SDS011;5840;46.894;15.542;2023-03-03T01:11:07;21.33;;;19.23;;
11568;SDS011;5840;46.894;15.542;2023-03-03T01:13:38;22.73;;;20.60;;
11568;SDS011;5840;46.894;15.542;2023-03-03T01:16:07;22.27;;;20.30;;
11568;SDS011;5840;46.894;15.542;2023-03-03T01:18:35;22.53;;;20.43;;
11568;SDS011;5840;46.894;15.542;2023-03-03T01:21:04;22.97;;;20.67;;
11568;SDS011;5840;46.894;15.542;2023-03-03T01:23:31;22.27;;;20.13;;
11568;SDS011;5840;46.894;15.542;2023-03-03T01:25:58;22.33;;;20.27;;
11568;SDS011;5840;46.894;15.542;2023-03-03T01:28:26;22.77;;;20.47;;
11568;SDS011;5840;46.894;15.542;2023-03-03T01:30:52;22.23;;;20.07;;
11568;SDS011;5840;46.894;15.542;2023-03-03T01:33:19;22.97;;;20.77;;
11568;SDS011;5840;46.894;15.542;2023-03-03T01:35:48;22.83;;;20.70;;
11568;SDS011;5840;46.894;15.542;2023-03-03T01:38:15;21.57;;;19.53;;
11568;SDS011;5840;46.894;15.542;2023-03-03T01:40:42;23.33;;;21.00;;
11568;SDS011;5840;46.894;15.542;2023-03-03T01:43:16;22.27;;;20.03;;
11568;SDS011;5840;46.894;15.542;2023-03-03T01:48:52;21.10;;;19.00;;
11568;SDS011;5840;46.894;15.542;2023-03-03T01:51:28;21.27;;;19.13;;
11568;SDS011;5840;46.894;15.542;2023-03-03T01:53:59;20.83;;;18.90;;
11568;SDS011;5840;46.894;15.542;2023-03-03T01:56:27;21.93;;;19.57;;
11568;SDS011;5840;46.894;15.542;2023-03-03T01:58:56;20.60;;;18.67;;
11568;SDS011;5840;46.894;15.542;2023-03-03T02:01:27;21.77;;;19.67;;
11568;SDS011;5840;46.894;15.542;2023-03-03T02:03:55;20.10;;;18.20;;
11568;SDS011;5840;46.894;15.542;2023-03-03T02:06:24;21.03;;;19.03;;
11568;SDS011;5840;46.894;15.542;2023-03-03T02:08:56;20.53;;;18.53;;
11568;SDS011;5840;46.894;15.542;2023-03-03T02:11:25;20.87;;;18.90;;
11568;SDS011;5840;46.894;15.542;2023-03-03T02:13:55;21.73;;;19.73;;
11568;SDS011;5840;46.894;15.542;2023-03-03T02:16:22;20.90;;;19.00;;
11568;SDS011;5840;46.894;15.542;2023-03-03T02:18:49;22.40;;;20.10;;
11568;SDS011;5840;46.894;15.542;2023-03-03T02:21:16;22.30;;;20.17;;
11568;SDS011;5840;46.894;15.542;2023-03-03T02:23:47;22.20;;;20.10;;
11568;SDS011;5840;46.894;15.542;2023-03-03T02:26:20;21.37;;;19.47;;
11568;SDS011;5840;46.894;15.542;2023-03-03T02:28:48;21.33;;;19.40;;
11568;SDS011;5840;46.894;15.542;2023-03-03T02:31:17;20.27;;;18.43;;
11568;SDS011;5840;46.894;15.542;2023-03-03T02:33:45;22.07;;;19.90;;
11568;SDS011;5840;46.894;15.542;2023-03-03T02:36:15;19.83;;;18.00;;
11568;SDS011;5840;46.894;15.542;2023-03-03T02:38:45;21.10;;;19.10;;
11568;SDS011;5840;46.894;15.542;2023-03-03T02:41:18;21.57;;;19.63;;
11568;SDS011;5840;46.894;15.542;2023-03-03T02:43:55;22.17;;;20.27;;
11568;SDS011;5840;46.894;15.542;2023-03-03T02:46:24;22.70;;;20.43;;
11568;SDS011;5840;46.894;15.542;2023-03-03T02:48:51;22.37;;;20.27;;
11568;SDS011;5840;46.894;15.542;2023-03-03T02:51:19;20.97;;;19.07;;
11568;SDS011;5840;46.894;15.542;2023-03-03T02:53:45;21.37;;;19.47;;
11568;SDS011;5840;46.894;15.542;2023-03-03T02:56:12;22.97;;;20.60;;
11568;SDS011;5840;46.894;15.542;2023-03-03T02:58:41;22.47;;;20.07;;
11568;SDS011;5840;46.894;15.542;2023-03-03T03:01:08;22.30;;;20.27;;
11568;SDS011;5840;46.894;15.542;2023-03-03T03:03:35;22.23;;;20.03;;
11568;SDS011;5840;46.894;15.542;2023-03-03T03:06:03;21.73;;;19.73;;
11568;SDS011;5840;46.894;15.542;2023-03-03T03:08:30;23.53;;;21.23;;
11568;SDS011;5840;46.894;15.542;2023-03-03T03:10:57;22.33;;;20.33;;
11568;SDS011;5840;46.894;15.542;2023-03-03T03:13:24;21.87;;;19.87;;
11568;SDS011;5840;46.894;15.542;2023-03-03T03:15:52;23.40;;;21.30;;
11568;SDS011;5840;46.894;15.542;2023-03-03T03:18:19;23.07;;;21.07;;
11568;SDS011;5840;46.894;15.542;2023-03-03T03:20:46;22.97;;;20.87;;
11568;SDS011;5840;46.894;15.542;2023-03-03T03:23:13;21.50;;;19.60;;
11568;SDS011;5840;46.894;15.542;2023-03-03T03:25:42;22.70;;;20.50;;
11568;SDS011;5840;46.894;15.542;2023-03-03T03:28:10;22.03;;;19.90;;
11568;SDS011;5840;46.894;15.542;2023-03-03T03:30:38;22.87;;;20.77;;
11568;SDS011;5840;46.894;15.542;2023-03-03T03:33:07;23.90;;;21.47;;
11568;SDS011;5840;46.894;15.542;2023-03-03T03:35:34;23.27;;;21.00;;
11568;SDS011;5840;46.894;15.542;2023-03-03T03:38:02;24.37;;;22.00;;
11568;SDS011;5840;46.894;15.542;2023-03-03T03:40:29;24.37;;;22.07;;
11568;SDS011;5840;46.894;15.542;2023-03-03T03:42:56;23.90;;;21.67;;
11568;SDS011;5840;46.894;15.542;2023-03-03T03:45:23;25.83;;;23.33;;
11568;SDS011;5840;46.894;15.542;2023-03-03T03:47:50;23.97;;;21.77;;
11568;SDS011;5840;46.894;15.542;2023-03-03T03:50:18;25.63;;;23.13;;
11568;SDS011;5840;46.894;15.542;2023-03-03T03:52:45;24.83;;;22.57;;
11568;SDS011;5840;46.894;15.542;2023-03-03T03:55:13;24.70;;;22.43;;
11568;SDS011;5840;46.894;15.542;2023-03-03T03:57:40;24.77;;;22.57;;
11568;SDS011;5840;46.894;15.542;2023-03-03T04:00:08;23.63;;;21.43;;
11568;SDS011;5840;46.894;15.542;2023-03-03T04:02:36;26.23;;;23.63;;
11568;SDS011;5840;46.894;15.542;2023-03-03T04:05:03;26.07;;;23.57;;
11568;SDS011;5840;46.894;15.542;2023-03-03T04:07:32;24.83;;;22.37;;
11568;SDS011;5840;46.894;15.542;2023-03-03T04:10:00;25.70;;;23.40;;
11568;SDS011;5840;46.894;15.542;2023-03-03T04:12:27;25.23;;;22.63;;
11568;SDS011;5840;46.894;15.542;2023-03-03T04:14:53;26.00;;;23.60;;
11568;SDS011;5840;46.894;15.542;2023-03-03T04:17:21;26.20;;;23.50;;
11568;SDS011;5840;46.894;15.542;2023-03-03T04:19:51;24.90;;;22.50;;
11568;SDS011;5840;46.894;15.542;2023-03-03T04:22:18;26.13;;;23.63;;
11568;SDS011;5840;46.894;15.542;2023-03-03T04:24:46;24.80;;;22.30;;
11568;SDS011;5840;46.894;15.542;2023-03-03T04:27:13;25.63;;;23.23;;
11568;SDS011;5840;46.894;15.542;2023-03-03T04:29:40;23.97;;;21.77;;
11568;SDS011;5840;46.894;15.542;2023-03-03T04:32:08;24.53;;;22.20;;
11568;SDS011;5840;46.894;15.542;2023-03-03T04:34:35;24.77;;;22.50;;
11568;SDS011;5840;46.894;15.542;2023-03-03T04:37:02;24.83;;;22.33;;
11568;SDS011;5840;46.894;15.542;2023-03-03T04:39:29;23.27;;;21.13;;
11568;SDS011;5840;46.894;15.542;2023-03-03T04:41:57;23.33;;;21.13;;
11568;SDS011;5840;46.894;15.542;2023-03-03T04:44:24;22.87;;;20.80;;
11568;SDS011;5840;46.894;15.542;2023-03-03T04:46:51;21.90;;;19.87;;
11568;SDS011;5840;46.894;15.542;2023-03-03T04:49:18;23.87;;;21.70;;
11568;SDS011;5840;46.894;15.542;2023-03-03T04:51:45;22.43;;;20.33;;
11568;SDS011;5840;46.894;15.542;2023-03-03T04:54:12;22.07;;;19.97;;
11568;SDS011;5840;46.894;15.542;2023-03-03T04:56:39;21.57;;;19.47;;
11568;SDS011;5840;46.894;15.542;2023-03-03T04:59:07;24.90;;;22.60;;
11568;SDS011;5840;46.894;15.542;2023-03-03T05:01:35;26.57;;;24.07;;
11568;SDS011;5840;46.894;15.542;2023-03-03T05:04:02;24.10;;;22.00;;
11568;SDS011;5840;46.894;15.542;2023-03-03T05:06:29;24.00;;;21.70;;
11568;SDS011;5840;46.894;15.542;2023-03-03T05:08:56;22.97;;;20.73;;
11568;SDS011;5840;46.894;15.542;2023-03-03T05:11:23;25.37;;;22.97;;
11568;SDS011;5840;46.894;15.542;2023-03-03T05:13:50;24.47;;;22.33;;
11568;SDS011;5840;46.894;15.542;2023-03-03T05:16:18;25.03;;;22.73;;
11568;SDS011;5840;46.894;15.542;2023-03-03T05:18:45;24.80;;;22.50;;
11568;SDS011;5840;46.894;15.542;2023-03-03T05:21:12;24.83;;;22.63;;
11568;SDS011;5840;46.894;15.542;2023-03-03T05:23:39;24.20;;;22.00;;
11568;SDS011;5840;46.894;15.542;2023-03-03T05:26:06;25.23;;;22.63;;
11568;SDS011;5840;46.894;15.542;2023-03-03T05:28:33;23.53;;;21.27;;
11568;SDS011;5840;46.894;15.542;2023-03-03T05:31:01;24.00;;;21.60;;
11568;SDS011;5840;46.894;15.542;2023-03-03T05:33:30;23.63;;;21.43;;
11568;SDS011;5840;46.894;15.542;2023-03-03T05:35:57;25.10;;;22.53;;
11568;SDS011;5840;46.894;15.542;2023-03-03T05:38:24;24.57;;;22.37;;
11568;SDS011;5840;46.894;15.542;2023-03-03T05:40:51;24.63;;;22.33;;
11568;SDS011;5840;46.894;15.542;2023-03-03T05:43:18;22.70;;;20.60;;
11568;SDS011;5840;46.894;15.542;2023-03-03T05:45:46;25.13;;;22.73;;
11568;SDS011;5840;46.894;15.542;2023-03-03T05:48:13;23.73;;;21.53;;
11568;SDS011;5840;46.894;15.542;2023-03-03T05:50:41;24.30;;;22.07;;
11568;SDS011;5840;46.894;15.542;2023-03-03T05:53:08;25.20;;;22.83;;
11568;SDS011;5840;46.894;15.542;2023-03-03T05:55:35;24.40;;;22.20;;
11568;SDS011;5840;46.894;15.542;2023-03-03T05:58:02;26.17;;;23.67;;
11568;SDS011;5840;46.894;15.542;2023-03-03T06:00:29;23.73;;;21.63;;
11568;SDS011;5840;46.894;15.542;2023-03-03T06:02:56;128.40;;;31.10;;
11568;SDS011;5840;46.894;15.542;2023-03-03T06:05:23;23.47;;;21.37;;
11568;SDS011;5840;46.894;15.542;2023-03-03T06:07:51;25.30;;;22.90;;
11568;SDS011;5840;46.894;15.542;2023-03-03T06:10:18;24.80;;;22.50;;
11568;SDS011;5840;46.894;15.542;2023-03-03T06:12:45;25.17;;;22.83;;
11568;SDS011;5840;46.894;15.542;2023-03-03T06:15:12;24.87;;;22.47;;
11568;SDS011;5840;46.894;15.542;2023-03-03T06:17:39;24.67;;;22.37;;
11568;SDS011;5840;46.894;15.542;2023-03-03T06:20:07;24.80;;;22.53;;
11568;SDS011;5840;46.894;15.542;2023-03-03T06:22:34;25.33;;;22.83;;
11568;SDS011;5840;46.894;15.542;2023-03-03T06:25:03;27.00;;;24.53;;
11568;SDS011;5840;46.894;15.542;2023-03-03T06:27:30;26.30;;;23.53;;
11568;SDS011;5840;46.894;15.542;2023-03-03T06:29:57;25.53;;;23.00;;
11568;SDS011;5840;46.894;15.542;2023-03-03T06:32:24;24.97;;;22.63;;
11568;SDS011;5840;46.894;15.542;2023-03-03T06:34:51;27.00;;;24.60;;
11568;SDS011;5840;46.894;15.542;2023-03-03T06:37:18;25.53;;;23.23;;
11568;SDS011;5840;46.894;15.542;2023-03-03T06:39:45;25.10;;;22.80;;
11568;SDS011;5840;46.894;15.542;2023-03-03T06:42:14;26.00;;;23.60;;
11568;SDS011;5840;46.894;15.542;2023-03-03T06:44:41;26.53;;;24.03;;
11568;SDS011;5840;46.894;15.542;2023-03-03T06:47:07;26.03;;;23.63;;
11568;SDS011;5840;46.894;15.542;2023-03-03T06:49:34;24.70;;;22.37;;
11568;SDS011;5840;46.894;15.542;2023-03-03T06:52:04;27.23;;;24.60;;
11568;SDS011;5840;46.894;15.542;2023-03-03T06:54:37;25.80;;;23.40;;
11568;SDS011;5840;46.894;15.542;2023-03-03T06:57:06;26.70;;;24.20;;
11568;SDS011;5840;46.894;15.542;2023-03-03T06:59:42;26.60;;;24.10;;
11568;SDS011;5840;46.894;15.542;2023-03-03T07:02:11;27.13;;;24.47;;
11568;SDS011;5840;46.894;15.542;2023-03-03T07:04:42;25.53;;;23.20;;
11568;SDS011;5840;46.894;15.542;2023-03-03T07:07:14;25.37;;;22.97;;
11568;SDS011;5840;46.894;15.542;2023-03-03T07:09:44;25.83;;;23.43;;
11568;SDS011;5840;46.894;15.542;2023-03-03T07:12:15;25.23;;;22.93;;
11568;SDS011;5840;46.894;15.542;2023-03-03T07:14:46;24.67;;;22.57;;
11568;SDS011;5840;46.894;15.542;2023-03-03T07:17:19;24.93;;;22.50;;
11568;SDS011;5840;46.894;15.542;2023-03-03T07:19:48;25.83;;;23.27;;
11568;SDS011;5840;46.894;15.542;2023-03-03T07:22:16;24.53;;;22.20;;
11568;SDS011;5840;46.894;15.542;2023-03-03T07:24:44;24.03;;;21.73;;
11568;SDS011;5840;46.894;15.542;2023-03-03T07:27:16;24.67;;;22.37;;
11568;SDS011;5840;46.894;15.542;2023-03-03T07:29:47;23.30;;;21.20;;
11568;SDS011;5840;46.894;15.542;2023-03-03T07:32:20;23.80;;;21.70;;
11568;SDS011;5840;46.894;15.542;2023-03-03T07:34:51;24.53;;;22.20;;
11568;SDS011;5840;46.894;15.542;2023-03-03T07:37:21;26.67;;;24.17;;
11568;SDS011;5840;46.894;15.542;2023-03-03T07:39:54;29.20;;;26.30;;
11568;SDS011;5840;46.894;15.542;2023-03-03T07:42:24;29.07;;;26.47;;
11568;SDS011;5840;46.894;15.542;2023-03-03T07:44:53;27.93;;;25.43;;
11568;SDS011;5840;46.894;15.542;2023-03-03T07:47:23;27.00;;;24.40;;
11568;SDS011;5840;46.894;15.542;2023-03-03T07:49:51;25.67;;;23.17;;
11568;SDS011;5840;46.894;15.542;2023-03-03T07:52:24;24.63;;;22.40;;
11568;SDS011;5840;46.894;15.542;2023-03-03T07:54:54;24.33;;;21.83;;
11568;SDS011;5840;46.894;15.542;2023-03-03T07:57:25;24.17;;;21.77;;
11568;SDS011;5840;46.894;15.542;2023-03-03T07:59:58;23.17;;;20.97;;
11568;SDS011;5840;46.894;15.542;2023-03-03T08:02:37;24.80;;;22.37;;
11568;SDS011;5840;46.894;15.542;2023-03-03T08:08:21;23.03;;;20.93;;
11568;SDS011;5840;46.894;15.542;2023-03-03T08:10:55;22.80;;;20.80;;
11568;SDS011;5840;46.894;15.542;2023-03-03T08:13:26;24.53;;;22.27;;
11568;SDS011;5840;46.894;15.542;2023-03-03T08:16:03;23.93;;;21.77;;
11568;SDS011;5840;46.894;15.542;2023-03-03T08:18:50;24.37;;;22.07;;
11568;SDS011;5840;46.894;15.542;2023-03-03T08:21:19;25.63;;;23.30;;
11568;SDS011;5840;46.894;15.542;2023-03-03T08:23:47;23.40;;;21.23;;
11568;SDS011;5840;46.894;15.542;2023-03-03T08:26:15;23.77;;;21.57;;
11568;SDS011;5840;46.894;15.542;2023-03-03T08:28:44;25.00;;;22.70;;
11568;SDS011;5840;46.894;15.542;2023-03-03T08:31:12;23.80;;;21.50;;
11568;SDS011;5840;46.894;15.542;2023-03-03T08:33:39;24.60;;;22.13;;
11568;SDS011;5840;46.894;15.542;2023-03-03T08:36:06;24.93;;;22.73;;
11568;SDS011;5840;46.894;15.542;2023-03-03T08:38:34;24.50;;;22.27;;
11568;SDS011;5840;46.894;15.542;2023-03-03T08:41:01;24.57;;;22.30;;
11568;SDS011;5840;46.894;15.542;2023-03-03T08:43:29;23.63;;;21.43;;
11568;SDS011;5840;46.894;15.542;2023-03-03T08:45:58;24.30;;;22.10;;
11568;SDS011;5840;46.894;15.542;2023-03-03T08:48:27;24.63;;;22.23;;
11568;SDS011;5840;46.894;15.542;2023-03-03T08:50:54;24.57;;;22.37;;
11568;SDS011;5840;46.894;15.542;2023-03-03T08:53:22;24.10;;;21.97;;
11568;SDS011;5840;46.894;15.542;2023-03-03T08:55:49;23.23;;;21.13;;
11568;SDS011;5840;46.894;15.542;2023-03-03T08:58:17;24.47;;;22.07;;
11568;SDS011;5840;46.894;15.542;2023-03-03T09:00:45;24.40;;;22.30;;
11568;SDS011;5840;46.894;15.542;2023-03-03T09:03:14;23.33;;;21.23;;
11568;SDS011;5840;46.894;15.542;2023-03-03T09:05:41;22.80;;;20.57;;
11568;SDS011;5840;46.894;15.542;2023-03-03T09:08:09;22.53;;;20.43;;
11568;SDS011;5840;46.894;15.542;2023-03-03T09:10:36;23.63;;;21.23;;
11568;SDS011;5840;46.894;15.542;2023-03-03T09:13:06;22.20;;;20.20;;
11568;SDS011;5840;46.894;15.542;2023-03-03T09:15:38;21.90;;;19.70;;
11568;SDS011;5840;46.894;15.542;2023-03-03T09:18:10;22.60;;;20.50;;
11568;SDS011;5840;46.894;15.542;2023-03-03T09:20:42;21.97;;;19.80;;
11568;SDS011;5840;46.894;15.542;2023-03-03T09:26:13;21.87;;;19.87;;
11568;SDS011;5840;46.894;15.542;2023-03-03T09:28:52;21.33;;;19.30;;
11568;SDS011;5840;46.894;15.542;2023-03-03T09:31:21;21.87;;;19.77;;
11568;SDS011;5840;46.894;15.542;2023-03-03T09:33:52;21.50;;;19.63;;
11568;SDS011;5840;46.894;15.542;2023-03-03T09:36:23;20.27;;;18.47;;
11568;SDS011;5840;46.894;15.542;2023-03-03T09:38:52;20.43;;;18.57;;
11568;SDS011;5840;46.894;15.542;2023-03-03T09:47:39;22.23;;;20.00;;
11568;SDS011;5840;46.894;15.542;2023-03-03T09:50:17;20.63;;;18.77;;
11568;SDS011;5840;46.894;15.542;2023-03-03T09:52:55;20.90;;;18.80;;
11568;SDS011;5840;46.894;15.542;2023-03-03T09:55:36;20.27;;;18.23;;
11568;SDS011;5840;46.894;15.542;2023-03-03T09:58:17;19.50;;;17.57;;
11568;SDS011;5840;46.894;15.542;2023-03-03T10:00:54;19.47;;;17.57;;
11568;SDS011;5840;46.894;15.542;2023-03-03T10:03:41;18.67;;;17.07;;
11568;SDS011;5840;46.894;15.542;2023-03-03T10:06:21;19.10;;;17.40;;
11568;SDS011;5840;46.894;15.542;2023-03-03T10:08:56;19.27;;;17.47;;
11568;SDS011;5840;46.894;15.542;2023-03-03T10:11:34;18.67;;;16.87;;
11568;SDS011;5840;46.894;15.542;2023-03-03T10:14:21;18.63;;;16.93;;
11568;SDS011;5840;46.894;15.542;2023-03-03T10:17:08;19.43;;;17.43;;
11568;SDS011;5840;46.894;15.542;2023-03-03T10:19:50;18.47;;;16.67;;
11568;SDS011;5840;46.894;15.542;2023-03-03T10:22:29;18.87;;;17.13;;
11568;SDS011;5840;46.894;15.542;2023-03-03T10:25:11;18.20;;;16.43;;
11568;SDS011;5840;46.894;15.542;2023-03-03T10:27:52;18.47;;;16.80;;
11568;SDS011;5840;46.894;15.542;2023-03-03T10:30:45;17.13;;;15.53;;
11568;SDS011;5840;46.894;15.542;2023-03-03T10:33:18;17.77;;;16.13;;
11568;SDS011;5840;46.894;15.542;2023-03-03T10:35:55;18.20;;;16.50;;
11568;SDS011;5840;46.894;15.542;2023-03-03T10:38:51;18.60;;;16.90;;
11568;SDS011;5840;46.894;15.542;2023-03-03T10:41:31;18.03;;;16.47;;
11568;SDS011;5840;46.894;15.542;2023-03-03T10:44:24;16.10;;;14.50;;
11568;SDS011;5840;46.894;15.542;2023-03-03T10:50:02;15.27;;;13.97;;
11568;SDS011;5840;46.894;15.542;2023-03-03T10:52:43;16.40;;;14.77;;
11568;SDS011;5840;46.894;15.542;2023-03-03T10:55:22;16.03;;;14.40;;
11568;SDS011;5840;46.894;15.542;2023-03-03T10:58:06;15.40;;;14.03;;
11568;SDS011;5840;46.894;15.542;2023-03-03T11:00:48;15.83;;;14.43;;
11568;SDS011;5840;46.894;15.542;2023-03-03T11:03:37;16.67;;;15.07;;
11568;SDS011;5840;46.894;15.542;2023-03-03T11:06:20;15.17;;;13.87;;
11568;SDS011;5840;46.894;15.542;2023-03-03T11:08:52;16.40;;;14.90;;
11568;SDS011;5840;46.894;15.542;2023-03-03T11:11:26;16.03;;;14.53;;
11568;SDS011;5840;46.894;15.542;2023-03-03T11:14:00;16.30;;;14.80;;
11568;SDS011;5840;46.894;15.542;2023-03-03T11:16:35;20.07;;;17.50;;
11568;SDS011;5840;46.894;15.542;2023-03-03T11:19:15;16.70;;;15.00;;
11568;SDS011;5840;46.894;15.542;2023-03-03T11:21:57;18.70;;;16.87;;
11568;SDS011;5840;46.894;15.542;2023-03-03T11:24:39;17.37;;;15.47;;
11568;SDS011;5840;46.894;15.542;2023-03-03T11:27:25;19.23;;;15.97;;
11568;SDS011;5840;46.894;15.542;2023-03-03T11:30:23;15.77;;;14.37;;
11568;SDS011;5840;46.894;15.542;2023-03-03T11:33:00;16.90;;;15.30;;
11568;SDS011;5840;46.894;15.542;2023-03-03T11:35:34;16.50;;;14.90;;
11568;SDS011;5840;46.894;15.542;2023-03-03T11:38:18;16.67;;;14.70;;
11568;SDS011;5840;46.894;15.542;2023-03-03T11:40:56;16.03;;;14.63;;
11568;SDS011;5840;46.894;15.542;2023-03-03T11:43:30;18.23;;;16.30;;
11568;SDS011;5840;46.894;15.542;2023-03-03T11:46:04;17.37;;;15.87;;
11568;SDS011;5840;46.894;15.542;2023-03-03T11:48:35;16.57;;;15.00;;
11568;SDS011;5840;46.894;15.542;2023-03-03T11:51:10;17.47;;;15.73;;
11568;SDS011;5840;46.894;15.542;2023-03-03T11:53:44;15.87;;;14.50;;
11568;SDS011;5840;46.894;15.542;2023-03-03T11:56:26;17.20;;;15.70;;
11568;SDS011;5840;46.894;15.542;2023-03-03T11:59:02;16.13;;;14.60;;
11568;SDS011;5840;46.894;15.542;2023-03-03T12:01:41;16.23;;;14.73;;
11568;SDS011;5840;46.894;15.542;2023-03-03T12:04:15;16.03;;;14.53;;
11568;SDS011;5840;46.894;15.542;2023-03-03T12:06:50;16.83;;;15.10;;
11568;SDS011;5840;46.894;15.542;2023-03-03T12:09:30;16.17;;;14.67;;
11568;SDS011;5840;46.894;15.542;2023-03-03T12:12:05;16.77;;;15.27;;
11568;SDS011;5840;46.894;15.542;2023-03-03T12:14:44;16.27;;;14.87;;
11568;SDS011;5840;46.894;15.542;2023-03-03T12:17:31;16.37;;;14.87;;
11568;SDS011;5840;46.894;15.542;2023-03-03T12:20:22;16.10;;;14.67;;
11568;SDS011;5840;46.894;15.542;2023-03-03T12:22:57;15.97;;;14.47;;
11568;SDS011;5840;46.894;15.542;2023-03-03T12:25:34;16.50;;;15.03;;
11568;SDS011;5840;46.894;15.542;2023-03-03T12:28:06;15.93;;;14.50;;
11568;SDS011;5840;46.894;15.542;2023-03-03T12:33:46;16.43;;;14.87;;
11568;SDS011;5840;46.894;15.542;2023-03-03T12:36:34;15.53;;;14.10;;
11568;SDS011;5840;46.894;15.542;2023-03-03T12:39:25;15.60;;;14.13;;
11568;SDS011;5840;46.894;15.542;2023-03-03T12:41:59;16.77;;;15.17;;
11568;SDS011;5840;46.894;15.542;2023-03-03T12:44:37;16.37;;;14.87;;
11568;SDS011;5840;46.894;15.542;2023-03-03T12:47:12;16.27;;;14.87;;
11568;SDS011;5840;46.894;15.542;2023-03-03T12:49:45;17.13;;;15.33;;
11568;SDS011;5840;46.894;15.542;2023-03-03T12:52:23;16.63;;;15.03;;
11568;SDS011;5840;46.894;15.542;2023-03-03T12:55:07;16.70;;;15.20;;
11568;SDS011;5840;46.894;15.542;2023-03-03T12:57:42;15.67;;;14.17;;
11568;SDS011;5840;46.894;15.542;2023-03-03T13:00:25;16.20;;;14.73;;
11568;SDS011;5840;46.894;15.542;2023-03-03T13:03:01;16.93;;;15.33;;
11568;SDS011;5840;46.894;15.542;2023-03-03T13:05:39;15.93;;;14.43;;
11568;SDS011;5840;46.894;15.542;2023-03-03T13:08:19;17.70;;;16.10;;
11568;SDS011;5840;46.894;15.542;2023-03-03T13:11:00;16.43;;;14.97;;
11568;SDS011;5840;46.894;15.542;2023-03-03T13:13:42;17.00;;;15.20;;
11568;SDS011;5840;46.894;15.542;2023-03-03T13:16:19;17.37;;;15.87;;
11568;SDS011;5840;46.894;15.542;2023-03-03T13:18:55;17.43;;;15.63;;
11568;SDS011;5840;46.894;15.542;2023-03-03T13:21:26;16.07;;;14.47;;
11568;SDS011;5840;46.894;15.542;2023-03-03T13:24:00;16.80;;;15.30;;
11568;SDS011;5840;46.894;15.542;2023-03-03T13:26:41;17.30;;;15.60;;
11568;SDS011;5840;46.894;15.542;2023-03-03T13:29:14;16.30;;;14.90;;
11568;SDS011;5840;46.894;15.542;2023-03-03T13:31:46;17.43;;;15.83;;
11568;SDS011;5840;46.894;15.542;2023-03-03T13:34:22;15.80;;;14.30;;
11568;SDS011;5840;46.894;15.542;2023-03-03T13:37:01;17.33;;;15.83;;
11568;SDS011;5840;46.894;15.542;2023-03-03T13:39:32;16.73;;;15.33;;
11568;SDS011;5840;46.894;15.542;2023-03-03T13:42:03;17.03;;;15.43;;
11568;SDS011;5840;46.894;15.542;2023-03-03T13:44:40;17.13;;;15.53;;
11568;SDS011;5840;46.894;15.542;2023-03-03T13:47:12;17.30;;;15.87;;
11568;SDS011;5840;46.894;15.542;2023-03-03T13:49:52;17.93;;;16.13;;
11568;SDS011;5840;46.894;15.542;2023-03-03T13:52:27;16.23;;;14.83;;
11568;SDS011;5840;46.894;15.542;2023-03-03T13:55:04;17.30;;;15.70;;
11568;SDS011;5840;46.894;15.542;2023-03-03T13:57:49;16.03;;;14.63;;
11568;SDS011;5840;46.894;15.542;2023-03-03T14:03:16;16.70;;;15.13;;
11568;SDS011;5840;46.894;15.542;2023-03-03T14:05:56;15.77;;;14.43;;
11568;SDS011;5840;46.894;15.542;2023-03-03T14:08:32;17.50;;;15.80;;
11568;SDS011;5840;46.894;15.542;2023-03-03T14:11:25;17.53;;;15.93;;
11568;SDS011;5840;46.894;15.542;2023-03-03T14:13:58;18.40;;;16.60;;
11568;SDS011;5840;46.894;15.542;2023-03-03T14:16:36;17.63;;;16.13;;
11568;SDS011;5840;46.894;15.542;2023-03-03T14:19:12;17.93;;;16.43;;
11568;SDS011;5840;46.894;15.542;2023-03-03T14:21:44;17.53;;;15.90;;
11568;SDS011;5840;46.894;15.542;2023-03-03T14:24:18;17.80;;;16.20;;
11568;SDS011;5840;46.894;15.542;2023-03-03T14:26:46;17.87;;;16.37;;
11568;SDS011;5840;46.894;15.542;2023-03-03T14:29:29;16.97;;;15.33;;
11568;SDS011;5840;46.894;15.542;2023-03-03T14:31:57;17.37;;;15.57;;
11568;SDS011;5840;46.894;15.542;2023-03-03T14:34:29;15.80;;;14.30;;
11568;SDS011;5840;46.894;15.542;2023-03-03T14:37:19;16.80;;;15.10;;
11568;SDS011;5840;46.894;15.542;2023-03-03T14:39:50;18.63;;;16.80;;
11568;SDS011;5840;46.894;15.542;2023-03-03T14:42:30;18.03;;;16.27;;
11568;SDS011;5840;46.894;15.542;2023-03-03T14:45:01;17.50;;;15.90;;
11568;SDS011;5840;46.894;15.542;2023-03-03T14:47:44;17.60;;;16.07;;
11568;SDS011;5840;46.894;15.542;2023-03-03T14:50:26;17.67;;;16.07;;
11568;SDS011;5840;46.894;15.542;2023-03-03T14:53:05;17.53;;;15.87;;
11568;SDS011;5840;46.894;15.542;2023-03-03T14:55:39;17.10;;;15.33;;
11568;SDS011;5840;46.894;15.542;2023-03-03T14:58:21;18.17;;;16.17;;
11568;SDS011;5840;46.894;15.542;2023-03-03T15:00:59;16.83;;;15.43;;
11568;SDS011;5840;46.894;15.542;2023-03-03T15:03:43;16.77;;;15.13;;
11568;SDS011;5840;46.894;15.542;2023-03-03T15:06:25;16.20;;;14.73;;
11568;SDS011;5840;46.894;15.542;2023-03-03T15:08:56;15.73;;;14.33;;
11568;SDS011;5840;46.894;15.542;2023-03-03T15:11:52;16.87;;;15.17;;
11568;SDS011;5840;46.894;15.542;2023-03-03T15:14:20;17.30;;;15.73;;
11568;SDS011;5840;46.894;15.542;2023-03-03T15:16:53;16.27;;;14.80;;